Time;durP1;ratioP1;P1;durP2;ratioP2;P2;SDS_P1;SDS_P2;PMS_P1;PMS_P2;Temp;Humidity;BMP_temperature;BMP_pressure;BME280_temperature;BME280_humidity;BME280_pressure;Samples;Min_cycle;Max_cycle;Signal;HPM_P1;HPM_P2
2023/09/07 00:00:17;;;;;;;5.63;2.92;;;;;;;20.29;73.09;102315.91;7396680;19;20014;-64
2023/09/07 00:02:46;;;;;;;6.07;2.92;;;;;;;20.30;72.84;102308.69;7395173;19;20082;-64
2023/09/07 00:05:14;;;;;;;4.93;2.80;;;;;;;20.32;72.70;102314.78;7394763;19;20081;-63
2023/09/07 00:07:41;;;;;;;5.22;3.10;;;;;;;20.27;72.94;102315.22;7394294;19;20026;-63
2023/09/07 00:10:09;;;;;;;4.68;2.88;;;;;;;20.25;72.62;102313.63;7393817;19;20022;-64
2023/09/07 00:12:39;;;;;;;4.30;2.95;;;;;;;20.19;73.17;102320.44;7395279;19;20479;-63
2023/09/07 00:15:07;;;;;;;7.50;3.03;;;;;;;20.17;72.84;102320.53;7395458;19;20022;-65
2023/09/07 00:17:34;;;;;;;4.75;2.88;;;;;;;20.16;73.21;102323.38;7394031;19;20359;-65
2023/09/07 00:20:10;;;;;;;7.15;3.20;;;;;;;20.14;72.81;102318.13;7394592;19;20115;-64
2023/09/07 00:22:38;;;;;;;6.28;3.28;;;;;;;20.11;72.71;102321.13;7395008;19;20046;-64
2023/09/07 00:25:06;;;;;;;7.15;2.88;;;;;;;20.10;73.03;102323.91;7395726;19;20367;-63
2023/09/07 00:27:34;;;;;;;6.72;3.17;;;;;;;20.03;73.02;102312.00;7396527;19;20068;-63
2023/09/07 00:30:04;;;;;;;5.43;2.90;;;;;;;20.00;73.15;102315.84;7398948;19;20039;-63
2023/09/07 00:32:33;;;;;;;6.28;2.88;;;;;;;19.99;73.26;102322.19;7400766;19;20018;-63
2023/09/07 00:35:00;;;;;;;5.18;3.30;;;;;;;19.89;73.55;102318.63;7401373;19;20022;-63
2023/09/07 00:37:28;;;;;;;6.05;3.25;;;;;;;19.55;74.68;102307.25;7402077;19;20018;-63
2023/09/07 00:39:56;;;;;;;7.57;3.70;;;;;;;19.28;75.91;102322.09;7398376;19;20014;-63
2023/09/07 00:42:23;;;;;;;4.63;3.17;;;;;;;19.37;75.42;102305.16;7397160;19;20027;-63
2023/09/07 00:44:51;;;;;;;4.82;3.28;;;;;;;19.60;74.85;102305.00;7393196;19;20058;-62
2023/09/07 00:47:18;;;;;;;6.38;3.20;;;;;;;19.68;74.18;102306.06;7393910;19;20039;-63
2023/09/07 00:49:46;;;;;;;6.38;3.13;;;;;;;19.77;73.54;102301.75;7393771;19;20077;-63
2023/09/07 00:52:13;;;;;;;8.00;3.70;;;;;;;19.83;73.68;102303.88;7393763;19;20479;-63
2023/09/07 00:54:42;;;;;;;5.30;3.40;;;;;;;19.78;73.62;102302.59;7391438;19;20037;-63
2023/09/07 00:57:10;;;;;;;6.38;3.53;;;;;;;19.80;73.46;102306.81;7394319;19;20014;-63
2023/09/07 00:59:37;;;;;;;4.80;3.60;;;;;;;19.72;73.55;102303.97;7393869;19;20025;-64
2023/09/07 01:02:07;;;;;;;8.57;4.57;;;;;;;19.72;73.47;102298.59;7394219;19;20054;-64
2023/09/07 01:04:35;;;;;;;6.35;4.00;;;;;;;19.67;73.47;102309.75;7391233;19;20023;-61
2023/09/07 01:07:13;;;;;;;7.80;3.70;;;;;;;19.67;73.38;102304.38;7394489;19;20014;-60
2023/09/07 01:09:43;;;;;;;7.97;4.53;;;;;;;19.59;73.77;102300.63;7394349;19;20018;-62
2023/09/07 01:12:14;;;;;;;7.93;4.30;;;;;;;19.59;74.01;102297.94;7394851;19;20029;-62
2023/09/07 01:14:42;;;;;;;6.93;4.28;;;;;;;19.49;74.07;102301.41;7392036;19;20014;-62
2023/09/07 01:17:11;;;;;;;9.30;4.07;;;;;;;19.10;75.60;102307.53;7396168;19;20484;-63
2023/09/07 01:19:40;;;;;;;6.93;3.70;;;;;;;19.23;75.31;102308.19;7392229;19;20018;-63
2023/09/07 01:22:09;;;;;;;8.75;4.18;;;;;;;18.97;76.04;102305.06;7393646;19;20028;-63
2023/09/07 01:24:38;;;;;;;6.15;4.10;;;;;;;18.92;76.50;102310.78;7389717;19;20033;-63
2023/09/07 01:27:06;;;;;;;8.00;4.03;;;;;;;18.88;76.57;102316.56;7393745;19;20520;-63
2023/09/07 01:29:34;;;;;;;6.85;4.25;;;;;;;18.79;77.04;102307.44;7390774;19;20029;-63
2023/09/07 01:32:01;;;;;;;6.38;3.80;;;;;;;18.91;76.50;102313.63;7391689;19;20479;-63
2023/09/07 01:34:29;;;;;;;7.60;3.90;;;;;;;19.21;75.49;102312.84;7391100;19;20048;-64
2023/09/07 01:36:56;;;;;;;4.93;3.42;;;;;;;19.32;74.78;102307.41;7392678;19;20374;-64
2023/09/07 01:39:24;;;;;;;5.57;3.75;;;;;;;19.17;74.69;102312.25;7391328;19;20030;-64
2023/09/07 01:41:51;;;;;;;5.55;3.50;;;;;;;19.08;75.43;102312.19;7390862;19;20014;-64
2023/09/07 01:44:19;;;;;;;7.25;3.85;;;;;;;19.24;74.62;102308.06;7390294;19;20019;-64
2023/09/07 01:46:47;;;;;;;5.45;3.50;;;;;;;19.36;74.19;102314.22;7392847;19;20018;-63
2023/09/07 01:49:14;;;;;;;7.60;3.75;;;;;;;19.34;74.22;102308.13;7391933;19;20025;-63
2023/09/07 01:51:42;;;;;;;6.05;3.83;;;;;;;19.29;74.24;102306.81;7391296;19;20029;-63
2023/09/07 01:54:10;;;;;;;8.38;4.00;;;;;;;19.01;75.44;102317.25;7390142;19;20484;-64
2023/09/07 01:56:41;;;;;;;7.95;4.00;;;;;;;18.96;75.75;102311.38;7392377;19;20025;-64
2023/09/07 01:59:08;;;;;;;6.32;4.20;;;;;;;18.84;75.94;102315.97;7391554;19;20035;-63
2023/09/07 02:01:37;;;;;;;7.43;4.28;;;;;;;18.64;76.27;102316.75;7392346;19;20412;-63
2023/09/07 02:04:05;;;;;;;7.05;4.25;;;;;;;18.68;76.38;102311.00;7388545;19;20022;-63
2023/09/07 02:06:32;;;;;;;6.78;4.18;;;;;;;18.93;75.31;102314.34;7389260;19;20019;-63
2023/09/07 02:09:00;;;;;;;5.78;3.83;;;;;;;18.85;75.77;102315.00;7391042;19;20035;-64
2023/09/07 02:11:27;;;;;;;6.18;3.63;;;;;;;18.98;75.28;102315.66;7388365;19;20018;-63
2023/09/07 02:13:55;;;;;;;5.10;3.65;;;;;;;19.10;74.60;102312.91;7389398;19;20040;-63
2023/09/07 02:16:22;;;;;;;8.82;3.85;;;;;;;19.08;74.49;102313.06;7390061;19;20022;-63
2023/09/07 02:18:50;;;;;;;7.85;3.60;;;;;;;19.06;74.35;102311.47;7391118;19;20022;-63
2023/09/07 02:21:18;;;;;;;6.10;3.85;;;;;;;19.05;74.72;102316.00;7390029;19;20019;-63
2023/09/07 02:23:45;;;;;;;7.53;3.85;;;;;;;19.09;74.15;102309.38;7388578;19;20011;-63
2023/09/07 02:26:13;;;;;;;6.05;4.00;;;;;;;19.06;74.40;102312.31;7388994;19;20019;-63
2023/09/07 02:28:40;;;;;;;10.43;4.00;;;;;;;19.02;74.82;102310.03;7387398;19;20567;-63
2023/09/07 02:31:08;;;;;;;6.18;3.55;;;;;;;18.92;74.70;102308.09;7387190;19;20037;-62
2023/09/07 02:33:36;;;;;;;6.72;4.03;;;;;;;18.88;74.74;102316.56;7387029;19;20681;-63
2023/09/07 02:36:04;;;;;;;6.35;4.35;;;;;;;18.88;74.69;102308.50;7393277;19;20511;-63
2023/09/07 02:38:31;;;;;;;6.47;4.03;;;;;;;18.82;74.65;102307.19;7391113;19;20078;-63
2023/09/07 02:40:59;;;;;;;7.25;4.10;;;;;;;18.83;74.18;102316.09;7389676;19;20018;-63
2023/09/07 02:43:27;;;;;;;5.95;3.85;;;;;;;18.81;74.34;102315.34;7389505;19;20370;-63
2023/09/07 02:45:54;;;;;;;5.90;3.63;;;;;;;18.83;74.11;102305.38;7390770;19;20018;-63
2023/09/07 02:48:22;;;;;;;5.55;4.00;;;;;;;18.80;74.43;102309.16;7391078;19;20374;-63
2023/09/07 02:50:50;;;;;;;6.28;3.95;;;;;;;18.79;74.18;102312.81;7388817;19;20025;-63
2023/09/07 02:53:18;;;;;;;5.97;4.07;;;;;;;18.81;74.58;102318.03;7389380;19;20472;-63
2023/09/07 02:55:45;;;;;;;7.88;4.65;;;;;;;18.82;74.50;102314.41;7391398;19;20047;-63
2023/09/07 02:58:13;;;;;;;5.70;3.78;;;;;;;18.85;74.29;102314.13;7390354;19;20029;-63
2023/09/07 03:00:44;;;;;;;6.78;4.45;;;;;;;18.74;74.34;102315.03;7390480;19;20018;-63
2023/09/07 03:03:13;;;;;;;9.68;4.63;;;;;;;18.73;74.69;102316.88;7389200;19;20037;-62
2023/09/07 03:05:43;;;;;;;6.43;4.63;;;;;;;18.72;74.41;102314.31;7390423;19;20037;-62
2023/09/07 03:08:10;;;;;;;6.88;4.50;;;;;;;18.74;74.61;102313.22;7389974;19;20019;-62
2023/09/07 03:10:39;;;;;;;9.00;4.50;;;;;;;18.71;74.52;102312.59;7388375;19;20098;-62
2023/09/07 03:13:07;;;;;;;6.82;4.15;;;;;;;18.68;74.49;102310.16;7389925;19;20015;-62
2023/09/07 03:15:35;;;;;;;7.00;4.18;;;;;;;18.62;74.41;102324.06;7389225;19;20019;-65
2023/09/07 03:18:03;;;;;;;7.53;4.43;;;;;;;18.56;74.44;102314.69;7397661;19;20011;-64
2023/09/07 03:20:34;;;;;;;7.57;4.70;;;;;;;18.52;74.65;102322.16;7398287;19;20022;-65
2023/09/07 03:23:02;;;;;;;6.55;4.15;;;;;;;18.51;74.46;102317.78;7396189;19;20032;-64
2023/09/07 03:25:29;;;;;;;9.00;4.70;;;;;;;18.52;74.72;102318.63;7397505;19;20018;-64
2023/09/07 03:27:57;;;;;;;6.60;4.40;;;;;;;18.55;74.49;102323.75;7396594;19;20019;-64
2023/09/07 03:30:25;;;;;;;7.38;4.63;;;;;;;18.53;74.66;102323.00;7393820;19;20022;-64
2023/09/07 03:32:52;;;;;;;8.43;5.07;;;;;;;18.52;74.36;102322.16;7396476;19;20018;-65
2023/09/07 03:35:20;;;;;;;8.52;4.72;;;;;;;18.52;74.68;102319.47;7399869;19;20007;-65
2023/09/07 03:37:47;;;;;;;7.00;4.47;;;;;;;18.49;74.70;102319.72;7399032;19;20406;-65
2023/09/07 03:40:15;;;;;;;7.68;4.47;;;;;;;18.48;74.76;102323.38;7398826;19;20089;-65
2023/09/07 03:42:43;;;;;;;7.70;4.63;;;;;;;18.46;74.39;102321.78;7398589;19;20030;-65
2023/09/07 03:45:11;;;;;;;7.60;4.60;;;;;;;18.39;74.26;102325.94;7398580;19;20032;-65
2023/09/07 03:47:38;;;;;;;6.88;4.45;;;;;;;18.39;74.63;102325.94;7397350;19;20432;-65
2023/09/07 03:50:06;;;;;;;7.10;4.72;;;;;;;18.39;74.06;102326.84;7397030;19;20026;-63
2023/09/07 03:52:34;;;;;;;7.78;4.97;;;;;;;18.40;74.37;102325.00;7399015;19;20014;-63
2023/09/07 03:55:02;;;;;;;6.07;4.30;;;;;;;18.39;74.43;102329.50;7398382;19;20085;-63
2023/09/07 03:57:32;;;;;;;7.15;4.93;;;;;;;18.27;74.54;102339.38;7398725;19;20039;-66
2023/09/07 04:00:00;;;;;;;7.88;4.90;;;;;;;18.21;74.81;102333.69;7399043;19;20134;-65
2023/09/07 04:02:28;;;;;;;8.20;5.15;;;;;;;18.13;75.19;102336.97;7401337;19;20026;-65
2023/09/07 04:04:55;;;;;;;8.82;4.90;;;;;;;18.12;74.84;102329.91;7395701;19;20022;-65
2023/09/07 04:07:23;;;;;;;7.38;4.72;;;;;;;18.11;75.04;102330.03;7394734;19;20622;-65
2023/09/07 04:09:50;;;;;;;8.07;5.38;;;;;;;18.13;74.86;102342.34;7398242;19;20035;-65
2023/09/07 04:12:18;;;;;;;9.18;5.30;;;;;;;18.12;74.72;102337.09;7395784;19;20682;-65
2023/09/07 04:14:45;;;;;;;11.18;5.30;;;;;;;18.15;74.53;102332.34;7394102;19;20358;-65
2023/09/07 04:17:13;;;;;;;9.00;5.22;;;;;;;18.16;74.27;102339.44;7397651;19;20116;-65
2023/09/07 04:19:40;;;;;;;8.73;5.28;;;;;;;18.14;74.29;102336.00;7398284;19;20362;-65
2023/09/07 04:22:08;;;;;;;8.55;4.82;;;;;;;18.13;74.30;102339.66;7395535;19;20031;-65
2023/09/07 04:24:35;;;;;;;9.07;5.25;;;;;;;18.07;74.17;102341.97;7392528;19;20046;-66
2023/09/07 04:27:03;;;;;;;8.00;4.85;;;;;;;18.06;74.32;102335.78;7395767;19;20015;-65
2023/09/07 04:29:31;;;;;;;7.78;5.28;;;;;;;18.06;74.47;102335.78;7393550;19;20011;-65
2023/09/07 04:31:58;;;;;;;8.27;5.38;;;;;;;18.06;74.42;102340.28;7395124;19;20030;-65
2023/09/07 04:34:26;;;;;;;9.50;5.72;;;;;;;18.03;74.29;102334.19;7393376;19;20019;-63
2023/09/07 04:36:53;;;;;;;8.98;5.60;;;;;;;18.03;74.41;102342.22;7394695;19;20047;-62
2023/09/07 04:39:20;;;;;;;9.90;5.32;;;;;;;18.03;74.03;102344.91;7394028;19;20011;-62
2023/09/07 04:41:48;;;;;;;10.43;5.65;;;;;;;18.03;73.80;102339.53;7395385;19;20022;-62
2023/09/07 04:44:15;;;;;;;7.88;5.50;;;;;;;18.03;73.89;102339.53;7391109;19;20108;-62
2023/09/07 04:46:43;;;;;;;9.45;5.68;;;;;;;17.99;73.88;102346.13;7395217;19;20024;-62
2023/09/07 04:49:10;;;;;;;9.15;5.70;;;;;;;18.03;74.13;102346.72;7395899;19;20035;-65
2023/09/07 04:51:38;;;;;;;9.57;5.65;;;;;;;17.97;74.12;102344.53;7395007;19;20378;-65
2023/09/07 04:54:05;;;;;;;9.70;5.80;;;;;;;17.95;74.04;102346.50;7394367;19;20023;-65
2023/09/07 04:56:33;;;;;;;10.02;5.90;;;;;;;18.02;73.92;102337.00;7396663;19;20066;-65
2023/09/07 04:59:00;;;;;;;8.93;5.50;;;;;;;18.04;73.72;102340.38;7395937;19;20058;-65
2023/09/07 05:01:28;;;;;;;9.15;5.25;;;;;;;18.06;73.54;102341.13;7393989;19;20019;-65
2023/09/07 05:03:56;;;;;;;8.15;5.65;;;;;;;18.01;73.35;102344.19;7391679;19;20031;-65
2023/09/07 05:06:23;;;;;;;9.77;5.60;;;;;;;17.93;73.95;102343.94;7393040;19;20023;-65
2023/09/07 05:08:50;;;;;;;8.73;5.32;;;;;;;17.97;73.73;102337.38;7391624;19;20028;-65
2023/09/07 05:11:18;;;;;;;9.05;5.63;;;;;;;17.97;73.68;102345.41;7392135;19;20018;-65
2023/09/07 05:13:45;;;;;;;9.60;5.65;;;;;;;17.96;73.95;102341.00;7390773;19;20025;-65
2023/09/07 05:16:13;;;;;;;9.02;5.97;;;;;;;18.01;73.36;102344.19;7393961;19;20043;-65
2023/09/07 05:18:42;;;;;;;8.38;5.82;;;;;;;18.07;73.40;102352.69;7394104;19;20035;-64
2023/09/07 05:21:14;;;;;;;9.60;6.00;;;;;;;18.06;73.40;102359.91;7393730;19;20019;-64
2023/09/07 05:23:42;;;;;;;11.60;5.65;;;;;;;18.02;73.01;102356.59;7392341;19;20086;-65
2023/09/07 05:26:10;;;;;;;9.73;6.18;;;;;;;18.11;73.23;102364.88;7392947;19;20014;-65
2023/09/07 05:28:40;;;;;;;10.80;6.25;;;;;;;18.09;73.00;102354.31;7392451;19;20039;-65
2023/09/07 05:31:08;;;;;;;11.85;6.20;;;;;;;18.14;72.94;102367.31;7392456;19;20028;-65
2023/09/07 05:33:35;;;;;;;12.88;6.03;;;;;;;18.20;72.68;102361.47;7391654;19;20046;-65
2023/09/07 05:36:03;;;;;;;13.85;6.22;;;;;;;18.22;72.47;102360.38;7393535;19;20007;-65
2023/09/07 05:38:30;;;;;;;9.65;6.07;;;;;;;18.21;72.90;102355.13;7393332;19;20018;-65
2023/09/07 05:41:00;;;;;;;11.10;6.30;;;;;;;18.28;72.45;102353.66;7390248;19;20023;-65
2023/09/07 05:43:28;;;;;;;15.95;6.97;;;;;;;18.26;72.61;102356.47;7390969;19;20594;-66
2023/09/07 05:45:55;;;;;;;15.88;6.70;;;;;;;18.31;72.55;102358.75;7391126;19;20019;-66
2023/09/07 05:48:23;;;;;;;10.48;6.10;;;;;;;18.37;72.22;102365.47;7393098;19;20512;-64
2023/09/07 05:50:50;;;;;;;13.40;6.03;;;;;;;18.38;72.25;102365.34;7391304;19;20492;-65
2023/09/07 05:53:21;;;;;;;13.00;6.53;;;;;;;18.39;72.47;102350.97;7390996;19;20014;-64
2023/09/07 05:55:48;;;;;;;11.20;6.00;;;;;;;18.44;72.18;102359.50;7393369;19;20051;-64
2023/09/07 05:58:16;;;;;;;11.70;6.03;;;;;;;18.49;72.26;102357.28;7392371;19;20017;-64
2023/09/07 06:00:43;;;;;;;9.57;6.25;;;;;;;18.53;72.27;102365.94;7392794;19;20371;-64
2023/09/07 06:03:11;;;;;;;10.20;6.10;;;;;;;18.58;72.03;102362.84;7390369;19;20015;-64
2023/09/07 06:05:39;;;;;;;14.65;6.22;;;;;;;18.60;72.07;102367.13;7392395;19;20019;-64
2023/09/07 06:08:07;;;;;;;14.18;6.72;;;;;;;18.67;71.82;102372.84;7390395;19;20038;-64
2023/09/07 06:10:35;;;;;;;12.00;6.35;;;;;;;18.70;71.36;102369.94;7388763;19;20093;-64
2023/09/07 06:13:02;;;;;;;9.80;6.13;;;;;;;18.70;71.52;102372.59;7390340;19;20090;-64
2023/09/07 06:15:31;;;;;;;10.55;5.95;;;;;;;18.70;71.63;102369.94;7391965;19;20377;-64
2023/09/07 06:17:58;;;;;;;10.48;6.35;;;;;;;18.74;71.20;102371.41;7391436;19;20018;-64
2023/09/07 06:20:26;;;;;;;13.65;6.30;;;;;;;18.74;71.61;102372.25;7391998;19;20018;-64
2023/09/07 06:22:53;;;;;;;13.02;6.20;;;;;;;18.76;71.42;102364.06;7390642;19;20026;-64
2023/09/07 06:25:22;;;;;;;10.25;5.95;;;;;;;18.81;71.06;102371.72;7391450;19;20022;-64
2023/09/07 06:27:49;;;;;;;10.30;6.20;;;;;;;18.88;70.93;102368.41;7391170;19;20019;-63
2023/09/07 06:30:18;;;;;;;9.63;5.88;;;;;;;18.88;71.01;102365.72;7391115;19;20018;-64
2023/09/07 06:32:45;;;;;;;12.80;6.00;;;;;;;18.92;70.68;102364.50;7390653;19;20026;-64
2023/09/07 06:35:13;;;;;;;9.57;6.22;;;;;;;18.93;70.83;102374.28;7389389;19;20018;-64
2023/09/07 06:37:43;;;;;;;14.80;6.05;;;;;;;18.94;70.79;102373.28;7389654;19;20388;-64
2023/09/07 06:40:11;;;;;;;13.45;6.38;;;;;;;18.93;70.87;102373.41;7391588;19;20039;-64
2023/09/07 06:42:38;;;;;;;12.52;6.03;;;;;;;19.01;70.78;102381.69;7389043;19;20052;-64
2023/09/07 06:45:07;;;;;;;10.05;6.13;;;;;;;19.07;70.63;102381.16;7391014;19;20040;-64
2023/09/07 06:47:34;;;;;;;12.20;5.90;;;;;;;19.14;70.87;102384.19;7389341;19;20022;-64
2023/09/07 06:50:02;;;;;;;10.30;5.50;;;;;;;19.18;71.17;102377.56;7391197;19;20022;-63
2023/09/07 06:52:29;;;;;;;10.50;6.13;;;;;;;19.22;70.87;102377.19;7394383;19;20014;-63
2023/09/07 06:54:57;;;;;;;9.77;6.05;;;;;;;19.24;71.07;102379.75;7397544;19;20022;-64
2023/09/07 06:57:24;;;;;;;11.02;6.15;;;;;;;19.31;70.96;102375.56;7398263;19;20023;-64
2023/09/07 06:59:52;;;;;;;10.30;6.22;;;;;;;19.37;71.06;102380.41;7397904;19;20019;-64
2023/09/07 07:02:19;;;;;;;10.57;6.05;;;;;;;19.43;71.35;102384.41;7397734;19;20413;-64
2023/09/07 07:04:47;;;;;;;13.57;6.07;;;;;;;19.47;71.23;102385.84;7394626;19;20031;-64
2023/09/07 07:07:14;;;;;;;10.13;5.80;;;;;;;19.52;71.40;102391.69;7398035;19;20014;-64
2023/09/07 07:09:42;;;;;;;12.55;6.05;;;;;;;19.59;71.28;102392.84;7398473;19;20519;-64
2023/09/07 07:12:09;;;;;;;10.73;6.40;;;;;;;19.65;70.71;102395.06;7395396;19;20571;-64
2023/09/07 07:14:37;;;;;;;12.50;6.13;;;;;;;19.71;70.91;102401.72;7394825;19;20022;-64
2023/09/07 07:17:04;;;;;;;10.55;6.05;;;;;;;19.78;71.01;102394.84;7397067;19;20015;-64
2023/09/07 07:19:32;;;;;;;11.13;6.00;;;;;;;19.83;70.57;102397.13;7397639;19;20014;-63
2023/09/07 07:22:00;;;;;;;9.93;5.82;;;;;;;19.88;70.98;102394.88;7395448;19;20014;-64
2023/09/07 07:24:28;;;;;;;9.52;6.18;;;;;;;19.95;70.39;102399.59;7393986;19;20214;-64
2023/09/07 07:26:55;;;;;;;9.63;6.30;;;;;;;20.02;70.40;102401.75;7397070;19;20033;-64
2023/09/07 07:29:22;;;;;;;11.50;6.00;;;;;;;20.06;70.02;102395.97;7395321;19;20029;-64
2023/09/07 07:31:50;;;;;;;11.13;5.80;;;;;;;20.10;70.14;102401.94;7395481;19;20394;-64
2023/09/07 07:34:17;;;;;;;9.90;5.72;;;;;;;20.16;70.20;102396.88;7393983;19;20019;-64
2023/09/07 07:36:45;;;;;;;10.60;6.45;;;;;;;20.23;69.85;102396.34;7397353;19;20022;-64
2023/09/07 07:39:12;;;;;;;12.30;6.22;;;;;;;20.28;69.83;102399.47;7396488;19;20349;-64
2023/09/07 07:41:40;;;;;;;8.48;5.90;;;;;;;20.34;69.57;102401.63;7398211;19;20018;-64
2023/09/07 07:44:10;;;;;;;10.68;6.20;;;;;;;20.41;69.31;102403.63;7398685;19;20018;-64
2023/09/07 07:46:37;;;;;;;11.98;5.88;;;;;;;20.46;69.57;102411.28;7401011;19;20479;-64
2023/09/07 07:49:05;;;;;;;11.55;5.95;;;;;;;20.51;69.43;102403.66;7409419;19;20023;-64
2023/09/07 07:51:32;;;;;;;9.80;5.97;;;;;;;20.55;69.12;102405.09;7409924;19;20077;-64
2023/09/07 07:54:00;;;;;;;13.10;5.88;;;;;;;20.61;68.90;102392.94;7397970;19;20010;-64
2023/09/07 07:56:27;;;;;;;9.90;5.30;;;;;;;20.67;68.89;102403.97;7397136;19;20023;-64
2023/09/07 07:58:58;;;;;;;12.38;5.80;;;;;;;20.75;68.88;102399.75;7396614;19;20026;-64
2023/09/07 08:01:26;;;;;;;11.68;5.55;;;;;;;20.80;68.34;102403.75;7395846;19;20070;-64
2023/09/07 08:03:53;;;;;;;9.95;5.60;;;;;;;20.86;68.36;102403.16;7391746;19;20022;-64
2023/09/07 08:06:21;;;;;;;10.70;5.50;;;;;;;20.93;68.88;102403.47;7394360;19;20025;-64
2023/09/07 08:08:49;;;;;;;12.43;6.00;;;;;;;20.99;68.82;102408.31;7395652;19;20084;-64
2023/09/07 08:11:16;;;;;;;16.20;6.63;;;;;;;21.04;68.17;102408.72;7395313;19;20039;-64
2023/09/07 08:13:46;;;;;;;17.70;8.25;;;;;;;21.14;68.58;102406.03;7392317;19;20023;-64
2023/09/07 08:16:13;;;;;;;14.52;6.05;;;;;;;21.17;67.86;102411.97;7394890;19;20018;-64
2023/09/07 08:18:41;;;;;;;10.48;5.75;;;;;;;21.24;67.67;102411.41;7394359;19;20051;-64
2023/09/07 08:21:09;;;;;;;16.05;5.80;;;;;;;21.28;67.58;102415.53;7395311;19;20021;-64
2023/09/07 08:23:36;;;;;;;12.18;5.70;;;;;;;21.37;67.48;102401.25;7393468;19;20018;-64
2023/09/07 08:26:05;;;;;;;11.52;5.43;;;;;;;21.37;67.64;102398.53;7394824;19;20504;-64
2023/09/07 08:28:32;;;;;;;10.77;5.43;;;;;;;21.48;67.80;102408.28;7395226;19;20031;-64
2023/09/07 08:31:00;;;;;;;14.45;5.40;;;;;;;21.56;67.15;102405.72;7395961;19;20626;-64
2023/09/07 08:33:28;;;;;;;13.95;5.45;;;;;;;21.58;66.97;102401.91;7397719;19;20021;-64
2023/09/07 08:35:57;;;;;;;10.70;5.57;;;;;;;21.64;67.05;102406.72;7400945;19;20046;-64
2023/09/07 08:38:27;;;;;;;9.70;5.30;;;;;;;21.70;66.75;102402.59;7398801;19;20034;-64
2023/09/07 08:41:01;;;;;;;9.80;4.80;;;;;;;21.78;65.88;102386.50;7397133;19;20037;-64
2023/09/07 08:43:29;;;;;;;9.45;5.05;;;;;;;21.77;65.88;102401.00;7393694;19;20022;-64
2023/09/07 08:46:14;;;;;;;9.90;4.97;;;;;;;21.82;64.76;102390.63;7394546;19;20229;-64
2023/09/07 08:48:43;;;;;;;8.65;4.88;;;;;;;21.83;65.13;102397.72;7394810;19;20018;-64
2023/09/07 08:51:12;;;;;;;9.48;5.03;;;;;;;21.93;65.62;102397.69;7393224;19;20523;-64
2023/09/07 08:53:41;;;;;;;10.35;5.15;;;;;;;22.00;65.48;102393.41;7392799;19;20018;-64
2023/09/07 08:56:09;;;;;;;8.88;4.97;;;;;;;22.08;65.29;102389.97;7394468;19;20022;-64
2023/09/07 08:58:37;;;;;;;11.20;5.20;;;;;;;22.20;65.63;102387.94;7392964;19;20058;-64
2023/09/07 09:01:05;;;;;;;11.18;5.30;;;;;;;22.20;65.67;102387.94;7393952;19;20034;-64
2023/09/07 09:03:37;;;;;;;10.82;5.00;;;;;;;22.27;65.86;102392.59;7392122;19;20540;-64
2023/09/07 09:06:05;;;;;;;10.85;5.90;;;;;;;22.31;65.44;102385.06;7393512;19;20026;-64
2023/09/07 09:08:48;;;;;;;8.45;5.13;;;;;;;22.41;65.06;102380.47;7394215;19;20026;-64
2023/09/07 09:11:17;;;;;;;;;;;;;;;22.25;64.76;102381.13;7394077;19;20074;-64
2023/09/07 09:13:45;;;;;;;10.93;5.20;;;;;;;22.28;65.26;102374.56;7391357;19;19922;-63
2023/09/07 09:16:14;;;;;;;8.80;4.88;;;;;;;22.45;64.94;102376.47;7394273;19;20014;-64
2023/09/07 09:18:55;;;;;;;8.95;5.10;;;;;;;22.55;64.66;102374.56;7393659;19;20039;-64
2023/09/07 09:21:25;;;;;;;10.15;5.15;;;;;;;22.56;64.64;102370.84;7393599;19;20026;-63
2023/09/07 09:23:54;;;;;;;7.30;4.72;;;;;;;22.59;64.36;102378.66;7390380;19;20018;-63
2023/09/07 09:26:23;;;;;;;9.35;4.65;;;;;;;22.70;64.24;102365.91;7393555;19;20014;-63
2023/09/07 09:28:55;;;;;;;7.97;4.70;;;;;;;22.83;63.99;102374.50;7392558;19;20094;-63
2023/09/07 09:31:24;;;;;;;8.75;5.05;;;;;;;22.83;63.56;102377.22;7392957;19;20488;-64
2023/09/07 09:33:53;;;;;;;7.18;4.40;;;;;;;22.95;63.03;102372.44;7391722;19;20026;-64
2023/09/07 09:36:21;;;;;;;9.00;4.47;;;;;;;22.98;62.54;102367.59;7392758;19;20039;-64
2023/09/07 09:38:52;;;;;;;9.63;4.70;;;;;;;22.98;62.08;102366.75;7392506;19;20027;-64
2023/09/07 09:41:23;;;;;;;8.38;4.78;;;;;;;23.05;62.04;102373.22;7393065;19;20022;-64
2023/09/07 09:43:52;;;;;;;9.80;4.90;;;;;;;23.11;62.43;102370.72;7390535;19;20545;-64
2023/09/07 09:46:22;;;;;;;7.60;4.43;;;;;;;23.11;62.19;102359.06;7392300;19;20034;-64
2023/09/07 09:48:49;;;;;;;8.27;4.45;;;;;;;23.17;61.82;102366.56;7392776;19;20035;-64
2023/09/07 09:51:18;;;;;;;9.07;5.00;;;;;;;23.20;61.47;102358.16;7392223;19;20015;-64
2023/09/07 09:53:46;;;;;;;7.72;4.47;;;;;;;23.26;61.48;102356.66;7391045;19;20026;-64
2023/09/07 09:56:14;;;;;;;7.60;4.32;;;;;;;23.33;60.87;102352.31;7392309;19;20037;-64
2023/09/07 09:58:41;;;;;;;7.72;4.75;;;;;;;23.40;61.39;102355.25;7392435;19;20022;-64
2023/09/07 10:01:10;;;;;;;8.48;4.20;;;;;;;23.52;60.43;102354.81;7394396;19;20090;-64
2023/09/07 10:03:50;;;;;;;8.32;4.70;;;;;;;23.60;60.21;102346.75;7393983;19;20022;-64
2023/09/07 10:06:20;;;;;;;14.27;7.10;;;;;;;23.57;60.71;102338.97;7394329;19;20018;-64
2023/09/07 10:09:06;;;;;;;13.88;7.22;;;;;;;23.60;59.39;102351.31;7394078;19;20021;-64
2023/09/07 10:11:39;;;;;;;14.48;8.15;;;;;;;23.59;60.17;102345.06;7393925;19;20034;-64
2023/09/07 10:14:07;;;;;;;12.73;5.30;;;;;;;23.69;59.12;102342.25;7392204;19;20472;-64
2023/09/07 10:16:43;;;;;;;11.15;5.82;;;;;;;23.84;58.59;102347.94;7393501;19;20021;-64
2023/09/07 10:19:22;;;;;;;8.20;4.30;;;;;;;23.82;57.28;102339.16;7391853;19;20495;-64
2023/09/07 10:21:52;;;;;;;7.75;4.10;;;;;;;23.84;57.03;102339.81;7393521;19;20344;-64
2023/09/07 10:24:28;;;;;;;7.15;4.00;;;;;;;23.92;56.82;102334.44;7392092;19;20035;-64
2023/09/07 10:27:06;;;;;;;10.10;4.35;;;;;;;24.05;56.44;102336.72;7399029;19;20162;-64
2023/09/07 10:29:52;;;;;;;8.93;4.40;;;;;;;24.04;56.43;102335.88;7400499;19;20022;-64
2023/09/07 10:32:23;;;;;;;12.13;4.53;;;;;;;24.03;56.53;102330.59;7400187;19;20050;-64
2023/09/07 10:34:51;;;;;;;9.23;4.43;;;;;;;23.99;56.73;102323.81;7395500;19;20018;-64
2023/09/07 10:37:19;;;;;;;7.05;4.15;;;;;;;24.07;56.30;102327.41;7399496;19;20029;-63
2023/09/07 10:39:46;;;;;;;8.88;4.40;;;;;;;24.11;56.60;102324.38;7398320;19;20618;-63
2023/09/07 10:42:24;;;;;;;9.10;4.13;;;;;;;24.15;55.74;102332.00;7398798;19;20046;-63
2023/09/07 10:44:52;;;;;;;8.43;4.18;;;;;;;24.15;55.79;102320.31;7395655;19;20090;-63
2023/09/07 10:47:20;;;;;;;7.72;3.78;;;;;;;24.21;55.71;102325.94;7397074;19;20510;-63
2023/09/07 10:49:48;;;;;;;9.45;4.28;;;;;;;24.22;55.00;102319.50;7398462;19;20086;-63
2023/09/07 10:52:16;;;;;;;9.93;4.00;;;;;;;24.25;55.17;102327.28;7397325;19;20015;-63
2023/09/07 10:54:44;;;;;;;6.88;4.00;;;;;;;24.34;55.48;102322.75;7394927;19;20026;-63
2023/09/07 10:57:17;;;;;;;9.93;4.35;;;;;;;24.38;55.46;102315.13;7398324;19;20022;-63
2023/09/07 10:59:46;;;;;;;8.40;4.10;;;;;;;24.42;54.99;102311.13;7398587;19;20365;-63
2023/09/07 11:02:15;;;;;;;6.75;3.92;;;;;;;24.35;55.87;102310.91;7396779;19;20018;-64
2023/09/07 11:04:43;;;;;;;8.40;4.40;;;;;;;24.35;55.53;102310.06;7394538;19;20015;-65
2023/09/07 11:07:12;;;;;;;8.88;4.00;;;;;;;24.35;54.73;102307.38;7398202;19;20018;-64
2023/09/07 11:09:43;;;;;;;10.52;4.25;;;;;;;24.38;55.03;102304.31;7397139;19;20044;-64
2023/09/07 11:12:15;;;;;;;8.82;4.13;;;;;;;24.45;55.00;102308.06;7398172;19;20025;-64
2023/09/07 11:14:43;;;;;;;7.77;4.40;;;;;;;24.49;54.96;102304.88;7395174;19;20014;-63
2023/09/07 11:17:11;;;;;;;8.23;3.72;;;;;;;24.53;54.40;102306.22;7401086;19;20292;-64
2023/09/07 11:19:38;;;;;;;8.55;4.55;;;;;;;24.63;54.28;102303.38;7399538;19;20014;-64
2023/09/07 11:22:09;;;;;;;7.38;4.05;;;;;;;24.78;53.71;102296.28;7399081;19;20025;-63
2023/09/07 11:24:36;;;;;;;8.75;3.75;;;;;;;24.84;53.40;102307.44;7394243;19;20022;-63
2023/09/07 11:27:04;;;;;;;9.20;4.45;;;;;;;24.77;53.47;102307.28;7396170;19;20033;-64
2023/09/07 11:29:32;;;;;;;7.05;3.58;;;;;;;24.77;53.16;102301.88;7397121;19;20015;-64